createdAt,value
2018-03-06T00:01:47.214Z,94086.50
2018-03-06T00:04:14.929Z,94083.64
2018-03-06T00:06:42.470Z,94086.64
2018-03-06T00:09:09.989Z,94097.62
2018-03-06T00:11:37.507Z,94086.55
2018-03-06T00:14:05.619Z,94087.95
2018-03-06T00:16:33.199Z,94074.89
2018-03-06T00:19:00.885Z,94082.05
2018-03-06T00:21:28.495Z,94084.58
2018-03-06T00:23:56.073Z,94068.16
2018-03-06T00:26:24.463Z,94077.60
2018-03-06T00:28:53.139Z,94059.97
2018-03-06T00:31:20.792Z,94044.23
2018-03-06T00:33:48.358Z,94049.41
2018-03-06T00:36:15.900Z,94017.27
2018-03-06T00:38:43.568Z,94021.95
2018-03-06T00:41:11.177Z,94052.75
2018-03-06T00:43:38.749Z,94027.53
2018-03-06T00:46:06.371Z,94019.60
2018-03-06T00:48:33.964Z,94022.45
2018-03-06T00:51:01.511Z,94023.02
2018-03-06T00:53:29.070Z,94015.12
2018-03-06T00:55:56.640Z,94017.64
2018-03-06T00:58:24.234Z,94025.64
2018-03-06T01:00:51.983Z,94018.06
2018-03-06T01:03:19.501Z,94026.38
2018-03-06T01:05:47.046Z,94007.50
2018-03-06T01:08:14.681Z,94007.02
2018-03-06T01:10:42.248Z,94011.82
2018-03-06T01:13:09.866Z,94014.14
2018-03-06T01:15:37.448Z,94034.06
2018-03-06T01:18:05.030Z,94021.11
2018-03-06T01:20:32.611Z,94008.75
2018-03-06T01:23:00.428Z,94014.91
2018-03-06T01:25:28.017Z,94034.91
2018-03-06T01:27:55.672Z,94028.77
2018-03-06T01:30:23.278Z,94037.95
2018-03-06T01:32:50.847Z,94030.25
2018-03-06T01:35:18.441Z,94030.12
2018-03-06T01:37:45.988Z,94026.11
2018-03-06T01:40:13.545Z,94023.59
2018-03-06T01:42:41.095Z,94016.41
2018-03-06T01:45:08.637Z,94013.24
2018-03-06T01:47:36.225Z,94013.59
2018-03-06T01:50:03.856Z,94021.12
2018-03-06T01:52:31.470Z,94020.73
2018-03-06T01:54:59.104Z,94021.52
2018-03-06T01:57:26.685Z,94014.17
2018-03-06T01:59:54.232Z,94029.11
2018-03-06T02:02:21.799Z,94034.89
2018-03-06T02:04:49.384Z,94044.33
2018-03-06T02:07:16.950Z,94050.47
2018-03-06T02:09:44.529Z,94058.98
2018-03-06T02:12:12.111Z,94078.27
2018-03-06T02:14:39.851Z,94067.36
2018-03-06T02:17:07.430Z,94073.87
2018-03-06T02:19:34.997Z,94069.28
2018-03-06T02:22:02.536Z,94075.64
2018-03-06T02:24:30.073Z,94081.27
2018-03-06T02:26:57.696Z,94066.83
2018-03-06T02:29:25.233Z,94076.09
2018-03-06T02:31:52.827Z,94079.37
2018-03-06T02:34:20.673Z,94086.85
2018-03-06T02:36:48.224Z,94079.95
2018-03-06T02:39:15.934Z,94079.00
2018-03-06T02:41:43.501Z,94069.59
2018-03-06T02:44:11.070Z,94059.95
2018-03-06T15:26:01.250Z,93772.25
2018-03-06T15:28:28.795Z,93772.66
2018-03-06T15:30:56.354Z,93777.85
2018-03-06T15:33:23.953Z,93800.37
2018-03-06T15:35:51.525Z,93809.02
2018-03-06T15:38:19.065Z,93794.99
2018-03-06T15:40:46.609Z,93797.72
2018-03-06T15:43:14.177Z,93795.98
2018-03-06T15:45:41.726Z,93813.91
2018-03-06T15:48:09.339Z,93813.54
2018-03-06T15:50:36.880Z,93810.06
2018-03-06T15:53:04.433Z,93821.47
2018-03-06T15:55:32.091Z,93828.64
2018-03-06T15:57:59.627Z,93801.40
2018-03-06T16:00:27.201Z,93809.45
2018-03-06T16:02:54.718Z,93820.20
2018-03-06T16:05:22.249Z,93831.30
2018-03-06T16:07:49.770Z,93810.78
2018-03-06T16:10:17.309Z,93805.42
2018-03-06T16:12:44.840Z,93814.73
2018-03-06T16:15:12.404Z,93827.36
2018-03-06T16:17:39.909Z,93806.64
2018-03-06T16:20:07.418Z,93795.38
2018-03-06T16:22:34.960Z,93806.09
2018-03-06T16:25:02.512Z,93820.89
2018-03-06T16:27:30.035Z,93801.89
2018-03-06T16:29:57.578Z,93784.27
2018-03-06T16:32:25.108Z,93781.73
2018-03-06T16:34:52.649Z,93759.97
2018-03-06T16:37:20.168Z,93784.88
2018-03-06T16:39:47.682Z,93802.38
2018-03-06T16:42:15.219Z,93811.41
2018-03-06T16:44:42.765Z,93815.38
2018-03-06T16:47:10.320Z,93800.17
2018-03-06T16:49:37.942Z,93794.91
2018-03-06T16:52:05.562Z,93785.08
2018-03-06T16:54:33.124Z,93784.59
2018-03-06T16:57:00.691Z,93785.64
2018-03-06T16:59:29.295Z,93791.11
2018-03-06T17:01:56.827Z,93793.66
2018-03-06T17:04:24.347Z,93799.66
2018-03-06T17:06:51.924Z,93799.79
2018-03-06T17:09:19.497Z,93811.72
2018-03-06T17:11:47.181Z,93815.97
2018-03-06T17:14:15.013Z,93813.22
2018-03-06T17:16:42.666Z,93831.45
2018-03-06T17:19:10.426Z,93814.61
2018-03-06T17:21:37.988Z,93837.86
2018-03-06T17:24:05.560Z,93824.08
2018-03-06T17:26:33.135Z,93826.63
2018-03-06T17:29:02.356Z,93836.88
2018-03-06T17:31:29.955Z,93810.53
2018-03-06T17:33:57.481Z,93835.52
2018-03-06T17:36:25.053Z,93809.76
2018-03-06T17:38:52.615Z,93798.53
2018-03-06T17:41:21.111Z,93812.09
2018-03-06T17:43:57.296Z,93804.55
2018-03-06T17:46:25.181Z,93794.86
2018-03-06T17:48:53.152Z,93825.08
2018-03-06T17:51:20.956Z,93813.27
2018-03-06T17:53:48.989Z,93800.68
2018-03-06T17:56:16.662Z,93807.86
2018-03-06T17:58:44.265Z,93840.59
2018-03-06T18:01:11.831Z,93804.19
2018-03-06T18:03:39.360Z,93798.38
2018-03-06T18:06:07.048Z,93816.40
2018-03-06T18:08:34.641Z,93839.83
2018-03-06T18:11:02.188Z,93818.13
2018-03-06T18:13:29.757Z,93853.57
2018-03-06T18:15:57.268Z,93822.77
2018-03-06T18:18:24.877Z,93840.20
2018-03-06T18:20:52.429Z,93862.47
2018-03-06T18:23:22.607Z,93841.55
2018-03-06T18:25:50.210Z,93827.44
2018-03-06T18:28:19.094Z,93835.36
2018-03-06T18:30:46.821Z,93854.92
2018-03-06T18:33:14.394Z,93861.67
2018-03-06T18:35:41.933Z,93797.62
2018-03-06T18:38:09.447Z,93775.73
2018-03-06T18:40:37.644Z,93755.62
2018-03-06T18:43:09.309Z,93766.45
2018-03-06T18:45:40.032Z,93755.81
2018-03-06T18:48:08.660Z,93750.20
2018-03-06T18:50:59.771Z,93775.33
2018-03-06T18:53:27.824Z,93761.41
2018-03-06T18:55:58.507Z,93788.87
2018-03-06T18:58:26.151Z,93829.11
2018-03-06T19:01:19.444Z,93764.70
2018-03-06T19:03:58.919Z,93817.86
2018-03-06T19:06:36.174Z,93821.14
2018-03-06T19:09:03.728Z,93811.63
2018-03-06T19:11:31.298Z,93756.14
2018-03-06T19:13:58.819Z,93817.41
2018-03-06T19:16:26.353Z,93760.16
2018-03-06T19:18:54.055Z,93790.52
2018-03-06T19:21:21.624Z,93805.95
2018-03-06T19:23:49.217Z,93776.95
2018-03-06T19:26:17.622Z,93762.80
2018-03-06T19:28:45.229Z,93769.54
2018-03-06T19:31:12.982Z,93798.95
2018-03-06T19:33:42.186Z,93783.28
2018-03-06T19:36:10.576Z,93796.84
2018-03-06T19:41:01.262Z,93835.70
2018-03-06T19:43:29.091Z,93823.69
2018-03-06T19:45:57.726Z,93810.16
2018-03-06T19:48:26.246Z,93803.77
2018-03-06T19:50:54.072Z,93852.48
2018-03-06T19:53:21.796Z,93811.23
2018-03-06T19:55:50.174Z,93804.64
2018-03-06T19:58:18.439Z,93824.38
2018-03-06T20:00:47.206Z,93798.77
2018-03-06T20:03:15.059Z,93794.84
2018-03-06T20:05:42.877Z,93773.20
2018-03-06T20:08:11.462Z,93772.22
2018-03-06T20:10:39.252Z,93815.23
2018-03-06T20:13:08.117Z,93772.27
2018-03-06T20:15:37.159Z,93786.59
2018-03-06T20:18:05.133Z,93783.88
2018-03-06T20:20:33.596Z,93768.01
2018-03-06T20:23:01.362Z,93757.73
2018-03-06T20:25:34.520Z,93766.05
2018-03-06T20:28:02.498Z,93760.06
2018-03-06T20:30:35.705Z,93771.81
2018-03-06T20:33:08.768Z,93769.84
2018-03-06T20:35:36.690Z,93743.73
2018-03-06T20:38:04.789Z,93785.06
2018-03-06T20:40:34.280Z,93765.91
2018-03-06T20:43:01.869Z,93707.15
2018-03-06T20:45:37.276Z,93692.84
2018-03-06T20:48:04.987Z,93740.73
2018-03-06T20:50:32.575Z,93745.72
2018-03-06T20:56:05.399Z,93729.47
2018-03-06T20:58:33.036Z,93744.16
2018-03-06T21:01:00.597Z,93722.11
2018-03-06T21:03:28.212Z,93725.00
2018-03-06T21:05:55.794Z,93695.63
2018-03-06T21:08:23.361Z,93716.29
2018-03-06T21:10:50.906Z,93704.70
2018-03-06T21:13:18.431Z,93657.19
2018-03-06T21:15:46.078Z,93659.32
2018-03-06T21:18:13.685Z,93711.42
2018-03-06T21:20:42.225Z,93688.84
2018-03-06T21:23:09.794Z,93698.27
2018-03-06T21:25:37.806Z,93671.09
2018-03-06T21:28:05.555Z,93688.63
2018-03-06T21:30:33.151Z,93683.80
2018-03-06T21:33:00.807Z,93711.39
2018-03-06T21:35:29.579Z,93695.78
2018-03-06T21:37:57.181Z,93751.75
2018-03-06T21:40:25.880Z,93709.47
2018-03-06T21:42:55.723Z,93695.18
2018-03-06T21:45:23.315Z,93725.12
2018-03-06T21:47:50.890Z,93678.97
2018-03-06T21:50:18.670Z,93733.41
2018-03-06T21:52:46.228Z,93652.70
2018-03-06T21:55:13.744Z,93696.53
2018-03-06T21:57:41.274Z,93661.40
2018-03-06T22:00:08.904Z,93698.45
2018-03-06T22:02:36.578Z,93685.93
2018-03-06T22:05:04.374Z,93660.64
2018-03-06T22:07:31.904Z,93688.45
2018-03-06T22:09:59.545Z,93700.44
2018-03-06T22:12:27.130Z,93686.71
2018-03-06T22:14:54.651Z,93671.27
2018-03-06T22:17:22.320Z,93699.68
2018-03-06T22:19:49.884Z,93668.41
2018-03-06T22:22:17.603Z,93728.66
2018-03-06T22:24:45.205Z,93701.06
2018-03-06T22:27:12.762Z,93744.34
2018-03-06T22:29:40.357Z,93774.83
2018-03-06T22:32:07.959Z,93768.88
2018-03-06T22:34:35.553Z,93766.78
2018-03-06T22:37:03.126Z,93762.72
2018-03-06T22:39:30.654Z,93807.55
2018-03-06T22:41:58.250Z,93786.88
2018-03-06T22:44:25.808Z,93787.88
2018-03-06T22:46:53.382Z,93793.10
2018-03-06T22:49:20.966Z,93832.92
2018-03-06T22:51:48.518Z,93828.47
2018-03-06T22:54:16.098Z,93797.19
2018-03-06T22:56:43.778Z,93742.33
2018-03-06T22:59:11.313Z,93765.89
2018-03-06T23:01:38.953Z,93778.64
2018-03-06T23:04:06.522Z,93781.73
2018-03-06T23:06:34.073Z,93780.56
2018-03-06T23:09:01.615Z,93755.98
2018-03-06T23:11:29.161Z,93767.02
2018-03-06T23:13:56.725Z,93767.20
2018-03-06T23:16:24.307Z,93776.88
2018-03-06T23:18:51.818Z,93779.94
2018-03-06T23:21:19.401Z,93774.92
2018-03-06T23:23:46.977Z,93773.57
2018-03-06T23:26:14.595Z,93791.69
2018-03-06T23:28:42.142Z,93803.86
2018-03-06T23:31:13.814Z,93808.84
2018-03-06T23:33:41.540Z,93782.80
2018-03-06T23:36:09.154Z,93806.92
2018-03-06T23:38:36.681Z,93796.46
2018-03-06T23:41:04.232Z,93788.66
2018-03-06T23:43:31.905Z,93802.25
2018-03-06T23:45:59.523Z,93812.25
2018-03-06T23:48:27.077Z,93817.27
2018-03-06T23:50:54.645Z,93822.49
2018-03-06T23:53:22.208Z,93812.24
2018-03-06T23:55:49.852Z,93827.47
2018-03-06T23:58:17.413Z,93813.95
